createdAt,value
2016-09-07T00:00:35.920Z,63.06
2016-09-07T00:00:57.652Z,63.15
2016-09-07T00:01:19.390Z,63.40
2016-09-07T00:01:41.140Z,63.04
2016-09-07T00:02:02.876Z,63.00
2016-09-07T00:02:24.669Z,62.93
2016-09-07T00:02:46.405Z,62.60
2016-09-07T00:03:15.754Z,62.67
2016-09-07T00:03:40.046Z,62.37
2016-09-07T00:04:01.800Z,62.58
2016-09-07T00:04:24.547Z,62.63
2016-09-07T00:04:49.047Z,62.68
2016-09-07T00:05:10.805Z,62.44
2016-09-07T00:05:59.066Z,62.11
2016-09-07T00:06:20.806Z,62.06
2016-09-07T00:07:21.118Z,63.08
2016-09-07T00:07:42.868Z,63.41
2016-09-07T00:08:04.622Z,63.45
2016-09-07T00:08:26.384Z,63.76
2016-09-07T00:08:48.131Z,64.17
2016-09-07T00:09:36.394Z,63.78
2016-09-07T00:09:58.128Z,63.59
2016-09-07T00:10:19.874Z,63.42
2016-09-07T00:10:41.614Z,63.50
2016-09-07T00:11:03.351Z,63.83
2016-09-07T00:11:25.095Z,64.13
2016-09-07T00:11:46.832Z,63.95
2016-09-07T00:12:08.580Z,63.75
2016-09-07T00:12:30.350Z,63.68
2016-09-07T00:12:52.093Z,63.47
2016-09-07T00:13:40.196Z,63.06
2016-09-07T00:14:04.606Z,62.85
2016-09-07T00:14:26.613Z,62.91
2016-09-07T00:14:53.239Z,63.05
2016-09-07T00:15:15.118Z,62.91
2016-09-07T00:15:37.009Z,62.96
2016-09-07T00:16:03.342Z,63.07
2016-09-07T00:16:28.627Z,63.11
2016-09-07T00:16:50.424Z,63.06
2016-09-07T00:17:19.557Z,63.21
2016-09-07T00:17:41.303Z,63.39
2016-09-07T00:18:34.155Z,63.89
2016-09-07T00:18:59.751Z,63.62
2016-09-07T00:19:21.505Z,63.17
2016-09-07T00:19:43.270Z,63.33
2016-09-07T00:20:05.169Z,63.70
2016-09-07T00:20:31.764Z,63.50
2016-09-07T00:20:53.546Z,63.38
2016-09-07T00:21:15.326Z,63.56
2016-09-07T00:21:37.201Z,63.42
2016-09-07T00:22:03.709Z,63.63
2016-09-07T00:22:25.537Z,63.50
2016-09-07T00:22:59.143Z,63.11
2016-09-07T00:23:20.894Z,63.37
2016-09-07T00:23:42.618Z,63.83
2016-09-07T00:24:07.125Z,63.55
2016-09-07T00:24:33.627Z,62.96
2016-09-07T00:24:55.764Z,62.67
2016-09-07T00:25:17.617Z,62.74
2016-09-07T00:25:44.135Z,62.58
2016-09-07T00:26:05.870Z,62.63
2016-09-07T00:26:27.604Z,62.57
2016-09-07T00:26:52.004Z,62.53
2016-09-07T00:27:17.828Z,62.18
2016-09-07T00:27:44.660Z,61.73
2016-09-07T00:28:06.427Z,61.88
2016-09-07T00:28:28.157Z,62.14
2016-09-07T00:28:49.904Z,62.37
2016-09-07T00:29:14.491Z,62.24
2016-09-07T00:29:36.350Z,62.05
2016-09-07T00:29:58.090Z,61.84
2016-09-07T00:30:24.599Z,61.73
2016-09-07T00:30:52.103Z,61.35
2016-09-07T00:31:40.382Z,61.18
2016-09-07T00:32:02.311Z,61.35
2016-09-07T00:32:24.100Z,60.94
2016-09-07T00:32:45.809Z,61.13
2016-09-07T00:33:10.472Z,61.51
2016-09-07T00:33:32.222Z,61.87
2016-09-07T00:33:53.972Z,62.13
2016-09-07T00:34:15.735Z,61.96
2016-09-07T00:34:42.238Z,62.36
2016-09-07T00:35:03.979Z,62.62
2016-09-07T00:35:25.710Z,62.55
2016-09-07T00:35:52.225Z,62.24
2016-09-07T00:36:13.960Z,61.94
2016-09-07T00:36:40.609Z,62.16
2016-09-07T00:37:58.987Z,63.11
2016-09-07T00:38:20.731Z,63.29
2016-09-07T00:38:47.229Z,62.75
2016-09-07T00:39:08.974Z,62.66
2016-09-07T00:39:57.051Z,62.12
2016-09-07T00:40:18.785Z,61.72
2016-09-07T00:40:40.529Z,61.83
2016-09-07T00:41:05.169Z,62.30
2016-09-07T00:41:26.900Z,62.65
2016-09-07T00:41:52.301Z,62.89
2016-09-07T00:42:14.040Z,62.73
2016-09-07T00:42:35.770Z,62.64
2016-09-07T00:42:57.521Z,62.82
2016-09-07T00:43:24.020Z,62.55
2016-09-07T00:43:50.990Z,62.54
2016-09-07T00:44:17.502Z,63.18
2016-09-07T00:44:39.371Z,63.24
2016-09-07T00:45:06.945Z,62.78
2016-09-07T00:45:33.466Z,62.83
2016-09-07T00:45:55.307Z,62.64
2016-09-07T00:46:22.000Z,62.77
2016-09-07T00:46:49.338Z,63.25
2016-09-07T00:47:21.630Z,63.27
2016-09-07T00:47:43.371Z,62.73
2016-09-07T00:48:05.146Z,62.84
2016-09-07T00:48:56.408Z,63.53
2016-09-07T00:49:21.051Z,63.30
2016-09-07T00:49:47.741Z,63.14
2016-09-07T00:50:43.592Z,63.42
2016-09-07T00:51:09.416Z,63.85
2016-09-07T00:51:38.794Z,63.89
2016-09-07T00:52:05.300Z,63.22
2016-09-07T00:52:34.503Z,62.68
2016-09-07T00:53:11.345Z,62.58
2016-09-07T00:53:40.679Z,62.56
2016-09-07T00:54:38.782Z,62.23
2016-09-07T00:55:39.013Z,62.43
2016-09-07T00:56:05.529Z,62.57
2016-09-07T00:56:28.615Z,62.42
2016-09-07T00:56:55.179Z,62.36
2016-09-07T00:57:24.620Z,61.92
2016-09-07T00:57:46.380Z,61.78
2016-09-07T00:58:08.120Z,61.99
2016-09-07T00:58:29.917Z,62.25
2016-09-07T00:58:51.675Z,62.28
2016-09-07T00:59:13.412Z,62.39
2016-09-07T00:59:35.134Z,62.74
2016-09-07T00:59:57.006Z,62.67
2016-09-07T01:00:21.674Z,63.00
2016-09-07T01:00:44.439Z,63.00
2016-09-07T01:01:06.261Z,63.02
2016-09-07T01:01:32.753Z,63.19
2016-09-07T01:01:54.507Z,63.49
2016-09-07T01:02:16.244Z,63.51
2016-09-07T01:02:40.712Z,63.34
2016-09-07T01:03:02.465Z,62.92
2016-09-07T01:03:24.231Z,62.91
2016-09-07T01:03:46.001Z,62.61
2016-09-07T01:04:07.723Z,62.34
2016-09-07T01:04:29.486Z,62.32
2016-09-07T01:04:54.152Z,62.14
2016-09-07T01:05:16.906Z,62.16
2016-09-07T01:05:38.634Z,62.29
2016-09-07T01:06:00.382Z,62.38
2016-09-07T01:06:22.157Z,62.56
2016-09-07T01:06:43.918Z,62.55
2016-09-07T01:07:10.411Z,62.53
2016-09-07T01:07:36.017Z,62.54
2016-09-07T01:07:57.986Z,62.66
2016-09-07T01:08:19.911Z,62.78
2016-09-07T01:08:42.737Z,63.01
2016-09-07T01:09:09.192Z,63.27
2016-09-07T01:09:31.915Z,63.26
2016-09-07T01:09:53.642Z,63.15
2016-09-07T01:10:15.534Z,63.16
2016-09-07T01:11:21.464Z,63.69
2016-09-07T01:11:46.110Z,63.73
2016-09-07T01:12:09.140Z,63.57
2016-09-07T01:12:30.874Z,63.70
2016-09-07T01:13:24.994Z,63.45
2016-09-07T01:13:46.731Z,63.22
2016-09-07T01:14:10.507Z,63.15
2016-09-07T01:14:37.006Z,63.07
2016-09-07T01:14:58.766Z,62.74
2016-09-07T01:15:20.507Z,62.71
2016-09-07T01:16:19.375Z,62.12
2016-09-07T01:16:45.867Z,61.96
2016-09-07T01:17:12.535Z,62.16
2016-09-07T01:17:34.268Z,62.38
2016-09-07T01:17:56.027Z,62.58
2016-09-07T01:18:17.826Z,62.21
2016-09-07T01:18:42.411Z,62.55
2016-09-07T01:19:35.434Z,62.29
2016-09-07T01:19:57.179Z,62.49
2016-09-07T01:20:23.682Z,62.64
2016-09-07T01:20:48.196Z,62.52
2016-09-07T01:21:10.219Z,62.40
2016-09-07T01:21:58.501Z,62.38
2016-09-07T01:22:20.511Z,62.33
2016-09-07T01:22:42.260Z,62.32
2016-09-07T01:23:04.014Z,62.32
2016-09-07T01:23:52.273Z,62.55
2016-09-07T01:24:16.669Z,62.53
2016-09-07T01:24:38.411Z,62.21
2016-09-07T01:25:01.163Z,61.86
2016-09-07T01:25:23.921Z,62.01
2016-09-07T01:25:50.421Z,62.46
2016-09-07T01:26:14.933Z,62.37
2016-09-07T01:26:36.660Z,62.32
2016-09-07T01:26:58.410Z,62.70
2016-09-07T01:27:20.165Z,62.64
2016-09-07T01:27:41.890Z,62.67
2016-09-07T01:28:32.345Z,62.75
2016-09-07T01:28:56.769Z,62.86
2016-09-07T01:29:18.782Z,62.68
2016-09-07T01:29:40.529Z,62.61
2016-09-07T01:30:07.045Z,62.80
2016-09-07T01:30:28.769Z,62.93
2016-09-07T01:31:17.070Z,62.22
2016-09-07T01:32:37.582Z,61.90
2016-09-07T01:33:26.863Z,62.29
2016-09-07T01:34:18.890Z,62.79
2016-09-07T01:35:07.196Z,62.42
2016-09-07T01:35:28.930Z,62.51
2016-09-07T01:35:51.707Z,62.75
2016-09-07T01:36:13.445Z,62.86
2016-09-07T01:36:35.170Z,63.04
2016-09-07T01:36:57.227Z,63.03
2016-09-07T01:37:18.959Z,63.06
2016-09-07T01:37:40.757Z,62.88
2016-09-07T01:38:03.519Z,62.82
2016-09-07T01:38:25.260Z,62.91
2016-09-07T01:38:47.001Z,63.02
2016-09-07T01:39:08.763Z,62.99
2016-09-07T01:39:30.526Z,63.23
2016-09-07T01:40:18.780Z,63.41
2016-09-07T01:40:40.529Z,63.72
2016-09-07T01:41:02.252Z,63.80
2016-09-07T01:41:23.986Z,63.56
2016-09-07T01:42:21.397Z,63.18
2016-09-07T01:42:47.912Z,63.07
2016-09-07T01:43:09.647Z,62.78
2016-09-07T01:43:31.361Z,62.56
2016-09-07T01:43:53.106Z,62.60
2016-09-07T01:44:19.692Z,63.11
2016-09-07T01:44:48.936Z,63.41
2016-09-07T01:45:15.452Z,63.55
2016-09-07T01:45:37.493Z,63.04
2016-09-07T01:46:06.971Z,62.53
2016-09-07T01:46:28.715Z,62.58
2016-09-07T01:46:50.459Z,62.72
2016-09-07T01:47:12.254Z,62.93
2016-09-07T01:47:35.071Z,62.95
2016-09-07T01:47:57.093Z,62.97
2016-09-07T01:48:18.965Z,63.14
2016-09-07T01:48:40.703Z,63.26
2016-09-07T01:49:10.124Z,63.31
2016-09-07T01:50:29.781Z,63.03
2016-09-07T01:51:19.045Z,62.89
2016-09-07T01:51:43.759Z,62.90
2016-09-07T01:52:05.525Z,62.77
2016-09-07T01:52:27.309Z,62.60
2016-09-07T01:53:23.164Z,63.03
2016-09-07T01:53:44.875Z,63.14
2016-09-07T01:54:06.739Z,62.88
2016-09-07T01:54:28.597Z,62.75
2016-09-07T01:54:50.468Z,62.36
2016-09-07T01:55:12.280Z,62.48
2016-09-07T01:55:34.049Z,62.54
2016-09-07T01:55:55.791Z,62.42
2016-09-07T01:56:22.300Z,62.24
2016-09-07T01:56:48.810Z,62.50
2016-09-07T01:57:10.534Z,62.35
2016-09-07T01:57:34.908Z,62.28
2016-09-07T01:58:28.040Z,62.05
2016-09-07T01:58:49.768Z,62.21
2016-09-07T01:59:16.281Z,62.37
2016-09-07T01:59:38.031Z,62.40
2016-09-07T01:59:59.743Z,62.66
2016-09-07T02:00:21.467Z,62.47
2016-09-07T02:00:43.208Z,62.69
2016-09-07T02:01:09.704Z,62.51
2016-09-07T02:01:34.212Z,62.73
2016-09-07T02:01:56.959Z,62.89
2016-09-07T02:02:26.112Z,62.91
2016-09-07T02:02:52.785Z,63.14
2016-09-07T02:03:14.750Z,63.01
2016-09-07T02:03:36.642Z,62.75
2016-09-07T02:04:03.241Z,62.48
2016-09-07T02:04:24.987Z,62.50
2016-09-07T02:04:49.480Z,62.23
2016-09-07T02:05:18.865Z,62.15
2016-09-07T02:05:40.629Z,62.06
2016-09-07T02:06:02.501Z,62.36
2016-09-07T02:06:24.331Z,62.45
2016-09-07T02:06:46.088Z,62.55
2016-09-07T02:07:07.820Z,62.75
2016-09-07T02:07:29.560Z,62.77
2016-09-07T02:07:51.301Z,62.84
2016-09-07T02:08:14.037Z,62.90
2016-09-07T02:08:35.771Z,62.70
2016-09-07T02:08:57.503Z,62.57
2016-09-07T02:09:20.252Z,62.55
2016-09-07T02:09:41.985Z,62.88
2016-09-07T02:10:03.733Z,63.07
2016-09-07T02:10:25.471Z,63.47
2016-09-07T02:10:47.214Z,63.59
2016-09-07T02:11:08.949Z,63.24
2016-09-07T02:11:30.802Z,63.33
2016-09-07T02:11:57.317Z,63.04
2016-09-07T02:12:19.063Z,63.09
2016-09-07T02:12:40.847Z,62.70
2016-09-07T02:13:07.349Z,62.74
2016-09-07T02:13:29.076Z,62.93
2016-09-07T02:13:50.949Z,62.93
2016-09-07T02:14:43.790Z,63.02
2016-09-07T02:15:05.649Z,63.07
2016-09-07T02:15:28.583Z,62.99
2016-09-07T02:15:50.459Z,63.07
2016-09-07T02:16:12.439Z,63.22
2016-09-07T02:16:39.045Z,63.19
2016-09-07T02:17:00.925Z,63.15
2016-09-07T02:17:22.913Z,62.85
2016-09-07T02:17:44.768Z,62.56
2016-09-07T02:18:07.653Z,62.64
2016-09-07T02:18:29.523Z,62.55
2016-09-07T02:18:51.377Z,62.91
2016-09-07T02:19:13.262Z,63.08
2016-09-07T02:19:35.127Z,63.35
2016-09-07T02:19:56.989Z,63.81
2016-09-07T02:20:18.929Z,63.87
2016-09-07T02:20:40.705Z,63.84
2016-09-07T02:21:05.297Z,63.85
2016-09-07T02:23:03.259Z,63.48
2016-09-07T02:23:25.093Z,63.60
2016-09-07T02:23:46.884Z,63.36
2016-09-07T02:24:08.616Z,63.46
2016-09-07T02:24:33.237Z,63.27
2016-09-07T02:24:54.980Z,63.22
2016-09-07T02:25:16.788Z,63.46
2016-09-07T02:25:40.597Z,63.74
2016-09-07T02:26:05.083Z,63.26
2016-09-07T02:26:26.959Z,63.52
2016-09-07T02:26:49.564Z,63.36
2016-09-07T02:27:11.279Z,63.37
2016-09-07T02:27:33.135Z,63.44
2016-09-07T02:27:54.872Z,63.81
2016-09-07T02:28:19.551Z,63.87
2016-09-07T02:28:41.282Z,63.99
2016-09-07T02:29:03.067Z,63.71
2016-09-07T02:29:56.114Z,63.89
2016-09-07T02:30:20.744Z,64.00
2016-09-07T02:30:42.587Z,64.12
2016-09-07T02:31:09.080Z,63.86
2016-09-07T02:31:30.814Z,64.08
2016-09-07T02:31:57.324Z,63.96
2016-09-07T02:32:26.543Z,63.86
2016-09-07T02:32:48.273Z,63.75
2016-09-07T02:33:14.789Z,64.21
2016-09-07T02:33:36.616Z,64.22
2016-09-07T02:33:58.340Z,64.23
2016-09-07T02:34:22.690Z,64.04
2016-09-07T02:34:50.232Z,64.04
2016-09-07T02:35:11.977Z,63.75
2016-09-07T02:35:33.700Z,63.75
2016-09-07T02:35:55.477Z,63.36
2016-09-07T02:36:21.987Z,63.19
2016-09-07T02:36:43.701Z,63.31
2016-09-07T02:37:08.037Z,63.59
2016-09-07T02:37:29.879Z,63.89
2016-09-07T02:37:52.636Z,63.85
2016-09-07T02:38:28.684Z,64.04
2016-09-07T02:38:55.215Z,63.90
2016-09-07T02:39:19.861Z,63.96
2016-09-07T02:39:41.701Z,64.00
2016-09-07T02:40:08.205Z,63.77
2016-09-07T02:40:30.933Z,63.84
2016-09-07T02:40:55.196Z,63.97
2016-09-07T02:41:17.049Z,64.24
2016-09-07T02:42:17.304Z,64.00
2016-09-07T02:42:39.032Z,64.52
2016-09-07T02:43:08.188Z,64.64
2016-09-07T02:43:34.710Z,64.29
2016-09-07T02:43:56.447Z,64.31
2016-09-07T02:44:18.174Z,64.43
2016-09-07T02:45:16.774Z,65.44
2016-09-07T02:45:38.549Z,65.52
2016-09-07T02:46:00.280Z,65.70
2016-09-07T02:46:22.024Z,65.55
2016-09-07T02:46:43.762Z,65.01
2016-09-07T02:47:05.489Z,64.98
2016-09-07T02:47:27.288Z,64.92
2016-09-07T02:47:49.260Z,65.52
2016-09-07T02:48:11.090Z,65.29
2016-09-07T02:48:32.834Z,65.52
2016-09-07T02:48:54.610Z,65.39
2016-09-07T02:49:42.888Z,64.77
2016-09-07T02:50:04.616Z,64.66
2016-09-07T02:50:26.367Z,64.37
2016-09-07T02:50:48.110Z,64.46
2016-09-07T02:51:09.950Z,64.35
2016-09-07T02:51:31.685Z,64.55
2016-09-07T02:51:58.194Z,64.78
2016-09-07T02:52:19.938Z,65.17
2016-09-07T02:52:46.443Z,66.30
2016-09-07T02:53:08.226Z,66.29
2016-09-07T02:53:29.967Z,65.85
2016-09-07T02:53:51.707Z,65.38
2016-09-07T02:54:13.470Z,65.34
2016-09-07T02:54:35.234Z,65.43
2016-09-07T02:54:56.942Z,65.86
2016-09-07T02:55:23.438Z,65.43
2016-09-07T02:55:49.084Z,64.96
2016-09-07T02:56:16.571Z,64.91
2016-09-07T02:56:39.314Z,64.92
2016-09-07T02:57:02.095Z,64.81
2016-09-07T02:57:23.867Z,64.90
2016-09-07T02:57:45.614Z,64.90
2016-09-07T02:58:07.362Z,64.56
2016-09-07T02:58:33.870Z,64.45
2016-09-07T02:58:55.612Z,64.44
2016-09-07T02:59:22.111Z,65.03
2016-09-07T02:59:43.854Z,65.41
2016-09-07T03:00:05.598Z,65.54
2016-09-07T03:00:28.344Z,65.54
2016-09-07T03:00:50.096Z,65.86
2016-09-07T03:01:11.829Z,65.96
2016-09-07T03:02:04.850Z,65.08
2016-09-07T03:02:27.601Z,65.37
2016-09-07T03:02:50.360Z,65.35
2016-09-07T03:03:12.251Z,65.21
2016-09-07T03:03:38.812Z,65.20
2016-09-07T03:04:00.722Z,65.57
2016-09-07T03:05:16.223Z,65.31
2016-09-07T03:05:38.166Z,65.38
2016-09-07T03:05:59.957Z,65.33
2016-09-07T03:06:27.490Z,65.27
2016-09-07T03:06:54.188Z,65.25
2016-09-07T03:07:15.947Z,65.18
2016-09-07T03:07:42.501Z,65.03
2016-09-07T03:08:04.277Z,64.98
2016-09-07T03:08:26.149Z,65.18
2016-09-07T03:08:47.922Z,65.69
2016-09-07T03:09:09.678Z,65.76
2016-09-07T03:09:32.424Z,65.73
2016-09-07T03:09:54.325Z,65.71
2016-09-07T03:10:17.126Z,65.82
2016-09-07T03:10:38.965Z,65.49
2016-09-07T03:11:01.708Z,65.14
2016-09-07T03:11:23.621Z,65.03
2016-09-07T03:11:50.040Z,65.11
2016-09-07T03:12:21.325Z,65.18
2016-09-07T03:12:43.049Z,65.56
2016-09-07T03:13:04.959Z,65.87
2016-09-07T03:13:40.997Z,65.84
2016-09-07T03:14:02.741Z,65.91
2016-09-07T03:14:29.298Z,65.54
2016-09-07T03:14:55.800Z,65.70
2016-09-07T03:15:17.551Z,65.68
2016-09-07T03:15:40.300Z,65.96
2016-09-07T03:16:02.059Z,66.02
2016-09-07T03:16:23.813Z,65.79
2016-09-07T03:17:26.351Z,66.02
2016-09-07T03:17:48.098Z,66.10
2016-09-07T03:18:09.854Z,65.82
2016-09-07T03:18:36.369Z,65.79
2016-09-07T03:19:12.405Z,66.08
2016-09-07T03:19:36.982Z,66.88
2016-09-07T03:19:58.764Z,67.34
2016-09-07T03:20:21.498Z,67.79
2016-09-07T03:20:43.259Z,67.46
2016-09-07T03:21:05.090Z,67.51
2016-09-07T03:21:27.881Z,67.77
2016-09-07T03:21:50.632Z,67.54
2016-09-07T03:22:16.315Z,67.43
2016-09-07T03:22:38.060Z,67.35
2016-09-07T03:23:04.565Z,67.56
2016-09-07T03:23:26.363Z,67.54
2016-09-07T03:23:53.871Z,67.10
2016-09-07T03:24:16.755Z,67.11
2016-09-07T03:24:39.586Z,66.77
2016-09-07T03:25:06.095Z,66.50
2016-09-07T03:25:37.387Z,66.48
2016-09-07T03:26:34.197Z,66.65
2016-09-07T03:27:27.243Z,66.90
2016-09-07T03:27:54.964Z,66.96
2016-09-07T03:28:21.356Z,67.00
2016-09-07T03:28:43.278Z,66.89
2016-09-07T03:29:09.823Z,67.34
2016-09-07T03:29:36.347Z,67.37
2016-09-07T03:29:58.331Z,67.39
2016-09-07T03:30:20.104Z,67.22
2016-09-07T03:30:41.944Z,67.33
2016-09-07T03:31:03.801Z,67.32
2016-09-07T03:31:36.249Z,66.67
2016-09-07T03:31:58.182Z,66.67
2016-09-07T03:32:19.947Z,66.37
2016-09-07T03:32:41.925Z,66.73
2016-09-07T03:33:11.225Z,66.64
2016-09-07T03:33:38.156Z,66.47
2016-09-07T03:34:02.601Z,66.52
2016-09-07T03:34:24.450Z,66.44
2016-09-07T03:34:53.842Z,66.59
2016-09-07T03:35:56.944Z,66.80
2016-09-07T03:36:23.282Z,66.92
2016-09-07T03:36:49.791Z,66.97
2016-09-07T03:37:13.592Z,67.10
2016-09-07T03:37:35.672Z,67.44
2016-09-07T03:37:58.668Z,67.40
2016-09-07T03:38:25.166Z,67.12
2016-09-07T03:38:51.788Z,67.70
2016-09-07T03:39:16.389Z,67.54
2016-09-07T03:39:42.933Z,67.54
2016-09-07T03:40:09.439Z,67.41
2016-09-07T03:40:32.201Z,66.92
2016-09-07T03:40:53.967Z,66.68
2016-09-07T03:41:47.020Z,66.35
2016-09-07T03:42:08.754Z,66.62
2016-09-07T03:42:30.540Z,66.74
2016-09-07T03:43:23.378Z,66.19
2016-09-07T03:43:45.122Z,66.33
2016-09-07T03:44:06.895Z,66.74
2016-09-07T03:44:29.637Z,67.27
2016-09-07T03:44:51.426Z,67.44
2016-09-07T03:45:14.437Z,67.32
2016-09-07T03:45:41.355Z,67.16
2016-09-07T03:46:04.120Z,67.21
2016-09-07T03:46:25.886Z,67.04
2016-09-07T03:46:52.424Z,67.31
2016-09-07T03:47:14.181Z,67.71
2016-09-07T03:48:02.668Z,67.52
2016-09-07T03:48:24.437Z,67.37
2016-09-07T03:49:18.459Z,67.14
2016-09-07T03:49:40.197Z,67.09
2016-09-07T03:50:02.194Z,66.82
2016-09-07T03:50:24.005Z,66.54
2016-09-07T03:50:48.172Z,66.84
2016-09-07T03:51:10.968Z,66.69
2016-09-07T03:51:37.560Z,66.63
2016-09-07T03:52:04.059Z,66.47
2016-09-07T03:52:26.098Z,66.58
2016-09-07T03:52:47.834Z,66.55
2016-09-07T03:53:11.573Z,66.74
2016-09-07T03:53:36.174Z,66.89
2016-09-07T03:54:09.516Z,67.74
2016-09-07T03:54:31.233Z,67.53
2016-09-07T03:54:52.978Z,66.89
2016-09-07T03:55:17.545Z,66.92
2016-09-07T03:55:41.929Z,66.37
2016-09-07T03:56:06.657Z,66.28
2016-09-07T03:57:26.217Z,66.85
2016-09-07T03:57:53.717Z,66.95
2016-09-07T03:58:15.446Z,66.65
2016-09-07T03:58:37.195Z,66.78
2016-09-07T03:59:25.570Z,67.81
2016-09-07T03:59:50.386Z,67.86
2016-09-07T04:01:00.686Z,67.77
2016-09-07T04:01:22.440Z,67.79
2016-09-07T04:01:58.506Z,67.26
2016-09-07T04:02:32.768Z,67.10
2016-09-07T04:03:22.990Z,66.89
2016-09-07T04:03:50.494Z,67.27
2016-09-07T04:04:14.658Z,66.99
2016-09-07T04:04:44.021Z,67.37
2016-09-07T04:05:36.911Z,68.63
2016-09-07T04:06:01.659Z,68.95
2016-09-07T04:06:23.430Z,69.20
2016-09-07T04:06:51.282Z,69.23
2016-09-07T04:07:13.177Z,69.00
2016-09-07T04:07:38.924Z,68.69
2016-09-07T04:08:05.775Z,68.39
2016-09-07T04:08:27.573Z,68.20
2016-09-07T04:08:49.317Z,68.38
2016-09-07T04:09:44.955Z,68.43
2016-09-07T04:10:14.060Z,67.99
2016-09-07T04:10:40.418Z,67.96
2016-09-07T04:11:07.176Z,67.85
2016-09-07T04:11:36.604Z,68.28
2016-09-07T04:11:59.356Z,68.70
2016-09-07T04:12:23.756Z,69.04
2016-09-07T04:12:50.172Z,68.66
2016-09-07T04:13:21.992Z,68.15
2016-09-07T04:13:49.330Z,67.85
2016-09-07T04:14:44.957Z,67.42
2016-09-07T04:15:06.722Z,67.89
2016-09-07T04:15:57.964Z,67.30
2016-09-07T04:16:51.016Z,67.36
2016-09-07T04:17:12.748Z,67.21
2016-09-07T04:17:35.486Z,67.06
2016-09-07T04:17:57.346Z,67.04
2016-09-07T04:18:22.089Z,67.31
2016-09-07T04:18:43.829Z,67.82
2016-09-07T04:19:12.201Z,68.42
2016-09-07T04:19:33.925Z,69.03
2016-09-07T04:20:32.169Z,68.98
2016-09-07T04:20:56.578Z,68.87
2016-09-07T04:21:18.335Z,69.20
2016-09-07T04:21:44.665Z,68.96
2016-09-07T04:22:06.405Z,68.58
2016-09-07T04:22:28.152Z,68.47
2016-09-07T04:22:49.886Z,68.06
2016-09-07T04:23:16.377Z,67.85
2016-09-07T04:23:38.124Z,67.79
2016-09-07T04:23:59.835Z,67.72
2016-09-07T04:24:50.476Z,67.86
2016-09-07T04:25:14.210Z,68.60
2016-09-07T04:25:39.538Z,68.49
2016-09-07T04:26:01.279Z,69.04
2016-09-07T04:26:25.630Z,69.72
2016-09-07T04:26:54.081Z,70.25
2016-09-07T04:27:15.797Z,70.59
2016-09-07T04:27:40.137Z,70.44
2016-09-07T04:28:07.378Z,70.03
2016-09-07T04:28:29.121Z,69.93
2016-09-07T04:28:56.070Z,69.45
2016-09-07T04:29:22.567Z,68.98
2016-09-07T04:30:14.778Z,68.49
2016-09-07T04:30:38.991Z,68.32
2016-09-07T04:31:00.754Z,68.10
2016-09-07T04:31:32.033Z,67.76
2016-09-07T04:31:53.781Z,67.88
2016-09-07T04:32:17.932Z,68.21
2016-09-07T04:32:42.341Z,68.25
2016-09-07T04:33:04.072Z,68.93
2016-09-07T04:33:28.578Z,69.45
2016-09-07T04:33:50.342Z,69.60
2016-09-07T04:34:12.072Z,69.72
2016-09-07T04:34:41.397Z,70.25
2016-09-07T04:35:03.189Z,70.60
2016-09-07T04:35:24.907Z,70.83
2016-09-07T04:36:17.925Z,69.95
2016-09-07T04:36:42.476Z,69.17
2016-09-07T04:37:05.235Z,68.77
2016-09-07T04:37:32.732Z,68.84
2016-09-07T04:37:59.778Z,68.86
2016-09-07T04:38:53.883Z,70.20
2016-09-07T04:40:11.158Z,70.47
2016-09-07T04:40:35.110Z,70.75
2016-09-07T04:41:04.195Z,70.81
2016-09-07T04:41:29.573Z,70.38
2016-09-07T04:42:22.588Z,69.28
2016-09-07T04:42:44.342Z,68.64
2016-09-07T04:43:11.346Z,69.08
2016-09-07T04:43:45.177Z,69.97
2016-09-07T04:44:06.923Z,70.11
2016-09-07T04:45:36.172Z,70.01
2016-09-07T04:45:59.961Z,70.53
2016-09-07T04:46:24.283Z,70.80
2016-09-07T04:46:46.127Z,71.28
2016-09-07T04:47:12.646Z,71.50
2016-09-07T04:47:35.400Z,71.30
2016-09-07T04:47:57.263Z,71.28
2016-09-07T04:48:19.004Z,71.58
2016-09-07T04:48:40.725Z,71.14
2016-09-07T04:49:02.435Z,71.37
2016-09-07T04:49:24.161Z,71.50
2016-09-07T04:49:45.928Z,71.03
2016-09-07T04:50:07.654Z,70.90
2016-09-07T04:50:29.372Z,70.89
2016-09-07T04:50:51.094Z,70.57
2016-09-07T04:51:12.835Z,70.32
2016-09-07T04:51:34.578Z,70.16
2016-09-07T04:51:56.296Z,70.33
2016-09-07T04:52:18.012Z,70.85
2016-09-07T04:52:39.730Z,71.38
2016-09-07T04:53:01.449Z,70.91
2016-09-07T04:53:23.158Z,70.37
2016-09-07T04:53:44.876Z,70.11
2016-09-07T04:54:06.595Z,69.60
2016-09-07T04:54:28.316Z,69.61
2016-09-07T04:54:50.024Z,70.68
2016-09-07T04:55:11.775Z,70.50
2016-09-07T04:55:33.490Z,70.43
2016-09-07T04:55:55.222Z,71.03
2016-09-07T04:56:16.937Z,71.67
2016-09-07T04:56:38.659Z,71.87
2016-09-07T04:57:03.368Z,71.66
2016-09-07T04:57:25.128Z,71.16
2016-09-07T04:57:46.853Z,70.84
2016-09-07T04:58:13.205Z,70.38
2016-09-07T04:58:42.408Z,70.03
2016-09-07T04:59:04.175Z,69.45
2016-09-07T04:59:26.980Z,69.39
2016-09-07T04:59:53.673Z,68.93
2016-09-07T05:00:52.457Z,69.25
2016-09-07T05:01:18.962Z,70.26
2016-09-07T05:01:41.694Z,70.23
2016-09-07T05:02:15.548Z,70.02
2016-09-07T05:02:38.409Z,70.12
2016-09-07T05:03:00.307Z,70.25
2016-09-07T05:03:22.041Z,69.90
2016-09-07T05:04:16.104Z,68.95
2016-09-07T05:04:44.482Z,68.94
2016-09-07T05:05:08.895Z,69.05
2016-09-07T05:06:24.917Z,69.29
2016-09-07T05:06:52.262Z,69.15
2016-09-07T05:07:14.003Z,69.84
2016-09-07T05:07:36.716Z,69.61
2016-09-07T05:07:59.433Z,69.60
2016-09-07T05:08:31.695Z,69.57
2016-09-07T05:09:02.966Z,69.17
2016-09-07T05:09:24.729Z,69.57
2016-09-07T05:09:46.463Z,69.97
2016-09-07T05:10:12.963Z,70.31
2016-09-07T05:11:01.267Z,70.48
2016-09-07T05:11:27.842Z,70.70
2016-09-07T05:12:23.477Z,71.36
2016-09-07T05:12:47.820Z,71.12
2016-09-07T05:13:14.384Z,70.67
2016-09-07T05:13:36.121Z,70.25
2016-09-07T05:14:03.315Z,70.60
2016-09-07T05:14:26.131Z,70.39
2016-09-07T05:14:52.639Z,70.04
2016-09-07T05:15:19.183Z,69.87
2016-09-07T05:15:40.920Z,69.83
2016-09-07T05:16:07.430Z,69.12
2016-09-07T05:16:36.463Z,69.05
2016-09-07T05:16:58.440Z,69.72
2016-09-07T05:18:21.061Z,70.59
2016-09-07T05:18:42.800Z,70.33
2016-09-07T05:19:07.372Z,69.66
2016-09-07T05:19:35.081Z,69.50
2016-09-07T05:20:01.571Z,69.85
2016-09-07T05:21:11.545Z,69.76
2016-09-07T05:21:39.029Z,69.76
2016-09-07T05:22:05.539Z,69.50
2016-09-07T05:22:27.273Z,69.55
2016-09-07T05:22:49.011Z,69.33
2016-09-07T05:23:10.744Z,69.19
2016-09-07T05:23:32.476Z,68.91
2016-09-07T05:23:59.817Z,69.09
2016-09-07T05:24:27.270Z,69.33
2016-09-07T05:24:56.665Z,69.42
2016-09-07T05:25:18.374Z,69.46
2016-09-07T05:25:40.094Z,69.16
2016-09-07T05:26:01.813Z,69.35
2016-09-07T05:26:23.555Z,69.44
2016-09-07T05:26:46.290Z,69.96
2016-09-07T05:27:10.610Z,70.04
2016-09-07T05:27:34.978Z,69.31
2016-09-07T05:28:28.949Z,69.04
2016-09-07T05:28:50.687Z,69.02
2016-09-07T05:29:42.690Z,69.39
2016-09-07T05:30:04.435Z,69.10
2016-09-07T05:30:28.875Z,68.66
2016-09-07T05:30:50.601Z,68.90
2016-09-07T05:31:17.106Z,69.60
2016-09-07T05:31:43.855Z,70.12
2016-09-07T05:32:05.580Z,69.97
2016-09-07T05:32:28.312Z,69.91
2016-09-07T05:33:19.144Z,69.52
2016-09-07T05:34:12.127Z,68.94
2016-09-07T05:34:41.337Z,69.11
2016-09-07T05:35:12.598Z,68.28
2016-09-07T05:35:34.316Z,68.45
2016-09-07T05:35:56.041Z,68.35
2016-09-07T05:36:17.759Z,68.53
2016-09-07T05:36:39.484Z,68.46
2016-09-07T05:37:03.228Z,68.46
2016-09-07T05:38:00.035Z,68.56
2016-09-07T05:38:26.385Z,69.28
2016-09-07T05:38:58.243Z,69.30
2016-09-07T05:39:19.942Z,68.97
2016-09-07T05:40:33.736Z,68.66
2016-09-07T05:40:58.079Z,68.24
2016-09-07T05:41:22.444Z,68.35
2016-09-07T05:41:46.764Z,68.28
2016-09-07T05:42:08.486Z,68.07
2016-09-07T05:42:39.637Z,68.54
2016-09-07T05:43:04.291Z,68.82
2016-09-07T05:43:33.592Z,69.13
2016-09-07T05:44:00.086Z,68.73
2016-09-07T05:44:21.842Z,68.68
2016-09-07T05:44:43.548Z,68.40
2016-09-07T05:45:34.329Z,68.84
2016-09-07T05:45:56.051Z,68.57
2016-09-07T05:46:20.011Z,68.64
2016-09-07T05:46:44.364Z,68.08
2016-09-07T05:47:08.527Z,68.74
2016-09-07T05:47:35.026Z,69.01
2016-09-07T05:48:06.281Z,69.00
2016-09-07T05:48:28.008Z,68.89
2016-09-07T05:49:19.120Z,68.94
2016-09-07T05:49:43.653Z,68.87
2016-09-07T05:50:08.124Z,68.79
2016-09-07T05:50:29.749Z,68.86